Wano, North Dakota
Current Conditions -  °F | °C
As of 3:56 AM on Sunday 23 Nov 2014 (Local Time) from KJMS Reporting Station
Light Rain Light Rain  
Wind Chill: 33°   Ceiling: 4100
Heat Index: 39°   Visibility: 10mi
Dew Point: 34°   Wind: 9mph
Humidity: 82%   Direction: 280°W
Pressure: 29.4"   Gusts: NA
Location:  46.2592°N, 98.7407°W
Report Text: KJMS 230956Z AUTO 28008KT 10SM -RA BKN041 OVC055 04/01 A2940 RMK AO2 RAB19 SLP966 P0000 T00390011
Loading
Personal Weather Stations






























Interactive Weather Map New forecast layout! Learn more

10-Day Weather Forecast

Advertisements
Track Severe Weather on mobile